No particular awareness of the weather is required.    There are no Weather-warnings


Meteo18 Weather Cam more information Meteo18 Weather Cam


Thunder radar more information blitzortung!


Rain radar more information rain snow radar


Visit our other weather sites:

Template documentation
and downloads

And another site



Weather Underground History page Text

Daily Summary for April 11, 2017 Units:  English    Metric   Both
« Previous Day
Next Day »
Daily Weekly Monthly Yearly Custom
  High: Low: Average:
Temperature: 58.6 °F 41.2 °F 50.5 °F
Dew Point: 45.3 °F 36.7 °F 40.5 °F
Humidity: 88 % 49 % 70 %
Wind Speed: 12 mph 0 mph 3.4 mph
Wind Gust: 15 mph - -
Wind:- - SW
Pressure: 30.4 in 30.3 in -
Precipitation: 0 in    
Historical Graphs
 
 
Tabular Data for April 11, 2017
Time Temperature Dew Point Pressure Wind Wind Speed Wind Gust Humidity Rainfall Rate (Hourly)
00:02 50.4 °F 44.8 °F 30.3 in NW 1 mph 3 mph 81 % 0 in
00:07 50.4 °F 44.8 °F 30.3 in NW 2 mph 3 mph 81 % 0 in
00:12 50.4 °F 44.8 °F 30.3 in WNW 1 mph 3 mph 81 % 0 in
00:17 50.2 °F 44.6 °F 30.3 in Calm   3 mph 81 % 0 in
00:22 50.2 °F 44.6 °F 30.3 in Calm   3 mph 81 % 0 in
00:27 50 °F 44.8 °F 30.3 in Calm   2 mph 82 % 0 in
00:32 50.2 °F 45 °F 30.3 in NW 2 mph 2 mph 82 % 0 in
00:37 50.4 °F 45.1 °F 30.3 in WNW 3 mph 3 mph 82 % 0 in
00:42 50.4 °F 44.8 °F 30.3 in Calm   3 mph 81 % 0 in
00:47 50.4 °F 44.8 °F 30.3 in WNW 1 mph 3 mph 81 % 0 in
00:52 50.4 °F 45.1 °F 30.3 in NW 2 mph 4 mph 82 % 0 in
00:57 50.4 °F 44.8 °F 30.3 in NW 1 mph 4 mph 81 % 0 in
01:02 50.4 °F 45.1 °F 30.3 in NW 4 mph 4 mph 82 % 0 in
01:07 50.5 °F 45 °F 30.3 in North 1 mph 4 mph 81 % 0 in
01:12 50.9 °F 45 °F 30.3 in NNW 3 mph 7 mph 80 % 0 in
01:17 51.3 °F 45.3 °F 30.3 in North 4 mph 7 mph 80 % 0 in
01:22 51.4 °F 44.1 °F 30.3 in NNE 7 mph 7 mph 76 % 0 in
01:27 51.4 °F 43.7 °F 30.3 in NE 4 mph 12 mph 75 % 0 in
01:32 51.4 °F 43.7 °F 30.3 in NNE 3 mph 12 mph 75 % 0 in
01:37 51.3 °F 43.9 °F 30.3 in NNW 3 mph 12 mph 76 % 0 in
01:42 51.3 °F 44.2 °F 30.3 in Calm   9 mph 77 % 0 in
01:47 50.9 °F 43.5 °F 30.3 in NW 5 mph 9 mph 76 % 0 in
01:52 50.5 °F 43 °F 30.3 in NE 2 mph 11 mph 75 % 0 in
01:57 50.5 °F 43 °F 30.3 in NNE 7 mph 14 mph 75 % 0 in
02:02 50.4 °F 43.2 °F 30.3 in NNE 4 mph 14 mph 76 % 0 in
02:12 49.6 °F 42.8 °F 30.3 in NNE 1 mph 9 mph 77 % 0 in
02:17 49.5 °F 42.6 °F 30.3 in NNW 2 mph 7 mph 77 % 0 in
02:22 49.3 °F 42.8 °F 30.3 in NNW 2 mph 5 mph 78 % 0 in
02:27 48.9 °F 42.4 °F 30.3 in NW 1 mph 5 mph 78 % 0 in
02:32 48.6 °F 42.1 °F 30.3 in Calm   5 mph 78 % 0 in
02:37 48.4 °F 41.9 °F 30.3 in WNW 1 mph 3 mph 78 % 0 in
02:42 48 °F 41.9 °F 30.3 in Calm   4 mph 79 % 0 in
02:47 47.5 °F 41.4 °F 30.3 in WNW 1 mph 4 mph 79 % 0 in
02:52 47.1 °F 41.4 °F 30.3 in WNW 1 mph 3 mph 80 % 0 in
02:57 47.1 °F 41 °F 30.3 in WNW 3 mph 3 mph 79 % 0 in
03:02 47.1 °F 41 °F 30.3 in NW 1 mph 4 mph 79 % 0 in
03:07 47.1 °F 41 °F 30.3 in Calm   4 mph 79 % 0 in
03:12 47.5 °F 40.6 °F 30.3 in WNW 2 mph 5 mph 77 % 0 in
03:17 47.5 °F 40.6 °F 30.3 in NNW 3 mph 5 mph 77 % 0 in
03:22 47.7 °F 40.8 °F 30.3 in NW 1 mph 5 mph 77 % 0 in
03:27 47.7 °F 40.8 °F 30.3 in NNW 1 mph 5 mph 77 % 0 in
03:32 47.5 °F 41 °F 30.3 in NW 2 mph 4 mph 78 % 0 in
03:37 47.5 °F 41 °F 30.3 in NW 3 mph 5 mph 78 % 0 in
03:42 47.5 °F 41 °F 30.3 in NNW 3 mph 5 mph 78 % 0 in
03:47 47.5 °F 40.6 °F 30.3 in North 4 mph 6 mph 77 % 0 in
03:52 47.5 °F 40.6 °F 30.3 in North 2 mph 7 mph 77 % 0 in
03:57 47.1 °F 40.3 °F 30.3 in NNW 2 mph 7 mph 77 % 0 in
04:02 47.1 °F 40.6 °F 30.3 in NNW 2 mph 7 mph 78 % 0 in
04:07 46.9 °F 40.5 °F 30.3 in North 3 mph 5 mph 78 % 0 in
04:12 46.8 °F 40.3 °F 30.3 in Calm   5 mph 78 % 0 in
04:17 46.6 °F 40.1 °F 30.3 in North 7 mph 7 mph 78 % 0 in
04:22 46.2 °F 39.7 °F 30.3 in North 4 mph 7 mph 78 % 0 in
04:32 45.3 °F 39.6 °F 30.3 in NNE 4 mph 7 mph 80 % 0 in
04:37 45.1 °F 39.4 °F 30.3 in North 2 mph 6 mph 80 % 0 in
04:42 45.1 °F 39.4 °F 30.3 in North 4 mph 7 mph 80 % 0 in
04:47 45.1 °F 39.4 °F 30.3 in NNW 4 mph 7 mph 80 % 0 in
04:52 45 °F 39.2 °F 30.3 in NNE 3 mph 7 mph 80 % 0 in
05:02 44.8 °F 39 °F 30.3 in NW 4 mph 10 mph 80 % 0 in
05:12 44.2 °F 38.8 °F 30.3 in North 2 mph 10 mph 81 % 0 in
05:17 44.2 °F 38.8 °F 30.3 in North 2 mph 8 mph 81 % 0 in
05:22 44.1 °F 38.7 °F 30.3 in Calm   8 mph 81 % 0 in
05:27 43.9 °F 38.7 °F 30.3 in NNE 1 mph 6 mph 82 % 0 in
05:32 43.5 °F 38.5 °F 30.3 in North 1 mph 6 mph 82 % 0 in
05:37 43.3 °F 38.5 °F 30.3 in North 3 mph 6 mph 83 % 0 in
05:42 43.3 °F 38.5 °F 30.3 in Calm   6 mph 83 % 0 in
05:52 43 °F 38.1 °F 30.3 in Calm   4 mph 83 % 0 in
05:57 42.6 °F 38.1 °F 30.3 in Calm   2 mph 84 % 0 in
06:02 42.6 °F 38.1 °F 30.3 in NW 2 mph 2 mph 84 % 0 in
06:12 42.4 °F 37.9 °F 30.3 in NNW 2 mph 4 mph 84 % 0 in
06:17 42.4 °F 38.3 °F 30.3 in Calm   4 mph 85 % 0 in
06:22 42.1 °F 37.9 °F 30.3 in NNW 1 mph 4 mph 85 % 0 in
06:32 41.7 °F 37.8 °F 30.3 in NNW 1 mph 4 mph 86 % 0 in
06:42 41.4 °F 37.6 °F 30.3 in Calm   2 mph 86 % 0 in
06:52 41.4 °F 37.8 °F 30.3 in NW 1 mph 3 mph 87 % 0 in
06:57 41.5 °F 37.9 °F 30.3 in NNW 2 mph 3 mph 87 % 0 in
07:02 41.4 °F 37.6 °F 30.3 in NNE 2 mph 3 mph 86 % 0 in
07:12 41.2 °F 37.6 °F 30.3 in NW 1 mph 4 mph 87 % 0 in
07:17 41.2 °F 37.6 °F 30.3 in NNE 1 mph 4 mph 87 % 0 in
07:22 41.4 °F 37.8 °F 30.3 in NW 2 mph 4 mph 87 % 0 in
07:27 41.5 °F 37.9 °F 30.3 in NNW 4 mph 5 mph 87 % 0 in
07:32 41.5 °F 37.9 °F 30.3 in NNW 2 mph 5 mph 87 % 0 in
07:37 41.5 °F 37.9 °F 30.3 in NNW 2 mph 5 mph 87 % 0 in
07:42 41.5 °F 37.9 °F 30.3 in NNW 2 mph 5 mph 87 % 0 in
07:52 41.5 °F 37.9 °F 30.3 in NNW 2 mph 4 mph 87 % 0 in
07:57 41.5 °F 37.9 °F 30.3 in North 3 mph 4 mph 87 % 0 in
08:02 41.7 °F 38.5 °F 30.3 in NNE 1 mph 4 mph 88 % 0 in
08:07 42.1 °F 38.8 °F 30.3 in NNW 2 mph 5 mph 88 % 0 in
08:12 42.3 °F 39 °F 30.3 in NW 2 mph 5 mph 88 % 0 in
08:17 42.6 °F 39 °F 30.3 in NNW 4 mph 7 mph 87 % 0 in
08:22 43 °F 38.8 °F 30.3 in NNW 6 mph 7 mph 85 % 0 in
08:27 43.3 °F 39.2 °F 30.3 in NE 3 mph 7 mph 85 % 0 in
08:32 43.5 °F 39 °F 30.3 in NNW 3 mph 7 mph 84 % 0 in
08:37 43.7 °F 39.2 °F 30.3 in North 6 mph 8 mph 84 % 0 in
08:42 44.1 °F 39.6 °F 30.3 in NNW 2 mph 8 mph 84 % 0 in
08:47 44.2 °F 39.7 °F 30.3 in NNE 9 mph 9 mph 84 % 0 in
08:52 44.4 °F 39.6 °F 30.3 in NE 3 mph 8 mph 83 % 0 in
08:57 44.6 °F 39.4 °F 30.3 in NNE 9 mph 11 mph 82 % 0 in
09:02 44.8 °F 39.6 °F 30.3 in NNE 6 mph 11 mph 82 % 0 in
09:07 45.3 °F 40.1 °F 30.3 in NNW 5 mph 13 mph 82 % 0 in
09:12 46 °F 40.3 °F 30.3 in NNE 4 mph 13 mph 80 % 0 in
09:17 46.2 °F 40.5 °F 30.3 in NNE 11 mph 14 mph 80 % 0 in
09:22 46 °F 39.9 °F 30.3 in NNW 9 mph 14 mph 79 % 0 in
09:32 45.9 °F 40.1 °F 30.3 in NNW 4 mph 15 mph 80 % 0 in
09:42 46.2 °F 40.5 °F 30.3 in NNW 5 mph 15 mph 80 % 0 in
09:47 46.8 °F 40.6 °F 30.3 in NW 6 mph 13 mph 79 % 0 in
09:52 46.8 °F 40.3 °F 30.3 in North 4 mph 13 mph 78 % 0 in
09:57 47.1 °F 40.3 °F 30.3 in NNW 7 mph 11 mph 77 % 0 in
10:02 47.7 °F 40.8 °F 30.3 in NNE 6 mph 11 mph 77 % 0 in
10:07 48.2 °F 41 °F 30.3 in NE 4 mph 12 mph 76 % 0 in
10:12 48.6 °F 41.4 °F 30.3 in NE 7 mph 12 mph 76 % 0 in
10:17 48.7 °F 41.5 °F 30.3 in North 3 mph 11 mph 76 % 0 in
10:22 49.1 °F 41.5 °F 30.3 in North 7 mph 11 mph 75 % 0 in
10:32 49.8 °F 41.5 °F 30.3 in NW 6 mph 11 mph 73 % 0 in
10:37 50.4 °F 42.1 °F 30.3 in NNW 3 mph 11 mph 73 % 0 in
10:42 50.5 °F 42.3 °F 30.3 in NW 6 mph 11 mph 73 % 0 in
10:47 50.7 °F 42.1 °F 30.3 in NW 9 mph 12 mph 72 % 0 in
10:52 50.7 °F 42.1 °F 30.3 in North 12 mph 12 mph 72 % 0 in
11:02 50.7 °F 42.1 °F 30.3 in NE 9 mph 14 mph 72 % 0 in
11:12 51.3 °F 42.3 °F 30.4 in NE 5 mph 14 mph 71 % 0 in
11:17 51.3 °F 43 °F 30.4 in NNE 2 mph 14 mph 73 % 0 in
11:22 51.4 °F 42.4 °F 30.4 in NNW 7 mph 14 mph 71 % 0 in
11:32 51.6 °F 42.4 °F 30.4 in NNW 8 mph 13 mph 71 % 0 in
11:37 51.6 °F 43 °F 30.4 in North 5 mph 13 mph 72 % 0 in
11:42 52 °F 42.8 °F 30.4 in NNE 7 mph 13 mph 71 % 0 in
11:47 52 °F 43.2 °F 30.4 in NE 6 mph 13 mph 72 % 0 in
11:52 52 °F 42.4 °F 30.4 in NNE 10 mph 13 mph 70 % 0 in
11:57 52.3 °F 43.5 °F 30.4 in ENE 6 mph 13 mph 72 % 0 in
12:02 52.5 °F 43 °F 30.4 in NNE 6 mph 13 mph 70 % 0 in
12:07 52.5 °F 42.6 °F 30.4 in NNE 6 mph 13 mph 69 % 0 in
12:12 53.2 °F 43.7 °F 30.4 in NE 6 mph 12 mph 70 % 0 in
12:17 52.5 °F 41.5 °F 30.4 in NE 5 mph 14 mph 66 % 0 in
12:22 53.1 °F 43.2 °F 30.4 in NNW 5 mph 14 mph 69 % 0 in
12:27 53.6 °F 43.7 °F 30.4 in North 1 mph 15 mph 69 % 0 in
12:32 53.4 °F 43.2 °F 30.4 in NNE 4 mph 15 mph 68 % 0 in
12:42 53.6 °F 42.1 °F 30.4 in NW 3 mph 13 mph 65 % 0 in
12:52 54.3 °F 42.8 °F 30.4 in WNW 3 mph 13 mph 65 % 0 in
13:02 54.1 °F 41.9 °F 30.4 in NW 4 mph 10 mph 63 % 0 in
13:12 54.7 °F 41.5 °F 30.3 in NW 3 mph 10 mph 61 % 0 in
13:17 54.5 °F 40.5 °F 30.3 in North 6 mph 10 mph 59 % 0 in
13:22 54 °F 41.7 °F 30.3 in NE 12 mph 12 mph 63 % 0 in
13:27 54.1 °F 41.9 °F 30.3 in NNE 5 mph 14 mph 63 % 0 in
13:32 54.1 °F 41 °F 30.3 in North 2 mph 14 mph 61 % 0 in
13:37 54.7 °F 41 °F 30.3 in North 3 mph 14 mph 60 % 0 in
13:42 55 °F 41 °F 30.3 in NE 3 mph 12 mph 59 % 0 in
13:47 55.4 °F 41.4 °F 30.3 in NW 3 mph 12 mph 59 % 0 in
13:52 55.8 °F 41.7 °F 30.3 in NE 3 mph 12 mph 59 % 0 in
13:57 56.1 °F 41.2 °F 30.3 in NNW 4 mph 11 mph 57 % 0 in
14:02 55.9 °F 40.5 °F 30.3 in NE 2 mph 11 mph 56 % 0 in
14:07 56.1 °F 41.5 °F 30.3 in NNE 6 mph 13 mph 58 % 0 in
14:12 56.7 °F 41.2 °F 30.3 in NW 6 mph 13 mph 56 % 0 in
14:22 56.5 °F 41.4 °F 30.3 in NNE 4 mph 10 mph 57 % 0 in
14:27 56.5 °F 41.4 °F 30.3 in NNW 4 mph 14 mph 57 % 0 in
14:32 56.3 °F 41.2 °F 30.3 in NNW 4 mph 14 mph 57 % 0 in
14:37 56.7 °F 42.1 °F 30.3 in NW 6 mph 14 mph 58 % 0 in
14:42 56.7 °F 40.3 °F 30.3 in NW 3 mph 12 mph 54 % 0 in
14:47 57 °F 41.5 °F 30.3 in NNE 5 mph 9 mph 56 % 0 in
14:52 57.4 °F 42.3 °F 30.3 in North 2 mph 9 mph 57 % 0 in
14:57 57.4 °F 41.4 °F 30.3 in NE 4 mph 10 mph 55 % 0 in
15:02 57 °F 40.1 °F 30.3 in North 6 mph 10 mph 53 % 0 in
15:12 57.7 °F 42.1 °F 30.3 in NE 3 mph 11 mph 56 % 0 in
15:17 57.7 °F 41.7 °F 30.3 in North 6 mph 11 mph 55 % 0 in
15:22 57.7 °F 41.2 °F 30.3 in NNW 6 mph 11 mph 54 % 0 in
15:27 57.9 °F 41.9 °F 30.3 in NE 10 mph 10 mph 55 % 0 in
15:32 57.4 °F 40.8 °F 30.3 in North 3 mph 10 mph 54 % 0 in
15:37 57.7 °F 40.3 °F 30.3 in West 6 mph 12 mph 52 % 0 in
15:42 57.7 °F 41.7 °F 30.3 in NNW 6 mph 12 mph 55 % 0 in
15:47 57.7 °F 41.2 °F 30.3 in NNW 7 mph 10 mph 54 % 0 in
15:52 57.9 °F 41.4 °F 30.3 in North 4 mph 13 mph 54 % 0 in
16:02 57.9 °F 41.4 °F 30.3 in North 10 mph 12 mph 54 % 0 in
16:12 58.1 °F 41.5 °F 30.3 in NNW 1 mph 10 mph 54 % 0 in
16:17 58.1 °F 41.5 °F 30.3 in NNE 2 mph 10 mph 54 % 0 in
16:22 57.9 °F 41.4 °F 30.3 in North 2 mph 11 mph 54 % 0 in
16:32 57.6 °F 40.1 °F 30.3 in NNE 1 mph 11 mph 52 % 0 in
16:42 58.3 °F 41.7 °F 30.3 in NW 6 mph 11 mph 54 % 0 in
16:47 58.5 °F 41.4 °F 30.3 in NNW 6 mph 10 mph 53 % 0 in
16:52 58.3 °F 41.2 °F 30.3 in NNW 2 mph 12 mph 53 % 0 in
16:57 58.3 °F 40.8 °F 30.3 in East 1 mph 12 mph 52 % 0 in
17:02 58.6 °F 40.6 °F 30.3 in NNW 6 mph 12 mph 51 % 0 in
17:12 58.3 °F 40.8 °F 30.3 in North 3 mph 11 mph 52 % 0 in
17:17 58.5 °F 40.5 °F 30.3 in NNW 5 mph 11 mph 51 % 0 in
17:22 58.5 °F 40.5 °F 30.3 in NNW 5 mph 11 mph 51 % 0 in
17:27 58.5 °F 40.5 °F 30.3 in NW 5 mph 11 mph 51 % 0 in
17:32 58.5 °F 41.4 °F 30.3 in ENE 2 mph 11 mph 53 % 0 in
17:42 58.5 °F 40.8 °F 30.3 in North 7 mph 11 mph 52 % 0 in
17:47 58.5 °F 40.5 °F 30.3 in North 8 mph 10 mph 51 % 0 in
17:52 58.6 °F 41 °F 30.3 in North 3 mph 11 mph 52 % 0 in
17:57 58.6 °F 41 °F 30.3 in NNW 2 mph 11 mph 52 % 0 in
18:02 58.5 °F 40.5 °F 30.3 in North 8 mph 11 mph 51 % 0 in
18:12 58.1 °F 39.6 °F 30.3 in NW 6 mph 11 mph 50 % 0 in
18:17 58.3 °F 39.7 °F 30.3 in NNW 7 mph 11 mph 50 % 0 in
18:22 58.3 °F 40.3 °F 30.3 in North 6 mph 11 mph 51 % 0 in
18:32 58.1 °F 39.6 °F 30.3 in NW 4 mph 10 mph 50 % 0 in
18:37 58.3 °F 40.3 °F 30.3 in NE 4 mph 10 mph 51 % 0 in
18:42 57.9 °F 38.8 °F 30.3 in North 4 mph 11 mph 49 % 0 in
18:52 57.9 °F 39.4 °F 30.3 in NNW 5 mph 10 mph 50 % 0 in
18:57 57.9 °F 39.9 °F 30.3 in North 3 mph 11 mph 51 % 0 in
19:02 57.9 °F 39.9 °F 30.3 in NNE 6 mph 11 mph 51 % 0 in
19:12 57.6 °F 39 °F 30.3 in NNW 9 mph 9 mph 50 % 0 in
19:17 57.4 °F 39.4 °F 30.3 in NNW 6 mph 13 mph 51 % 0 in
19:22 57.2 °F 39.2 °F 30.3 in North 7 mph 13 mph 51 % 0 in
19:32 56.7 °F 39.7 °F 30.3 in NNW 4 mph 10 mph 53 % 0 in
19:37 56.7 °F 39.7 °F 30.3 in NNW 3 mph 10 mph 53 % 0 in
19:42 56.5 °F 40.1 °F 30.3 in NNW 5 mph 9 mph 54 % 0 in
19:52 56.1 °F 40.1 °F 30.3 in NW 5 mph 8 mph 55 % 0 in
19:57 55.9 °F 39.9 °F 30.3 in NNW 5 mph 8 mph 55 % 0 in
20:02 55.6 °F 39.7 °F 30.3 in NNE 4 mph 7 mph 55 % 0 in
20:07 55 °F 39.6 °F 30.3 in NNW 2 mph 9 mph 56 % 0 in
20:12 54.9 °F 39.4 °F 30.3 in NNW 3 mph 9 mph 56 % 0 in
20:17 54.5 °F 39.6 °F 30.3 in NNW 2 mph 9 mph 57 % 0 in
20:22 54 °F 39.6 °F 30.3 in NNE 4 mph 7 mph 58 % 0 in
20:27 53.4 °F 39.4 °F 30.3 in NW 2 mph 7 mph 59 % 0 in
20:32 53.1 °F 39.2 °F 30.3 in NNW 2 mph 7 mph 59 % 0 in
20:42 52.3 °F 38.8 °F 30.3 in NNW 2 mph 5 mph 60 % 0 in
20:47 52.2 °F 39.2 °F 30.3 in ENE 3 mph 5 mph 61 % 0 in
20:52 52 °F 39 °F 30.3 in North 3 mph 6 mph 61 % 0 in
20:57 51.6 °F 39 °F 30.3 in NNE 2 mph 6 mph 62 % 0 in
21:02 51.3 °F 39 °F 30.3 in NNE 1 mph 6 mph 63 % 0 in
21:07 50.9 °F 39.2 °F 30.3 in North 1 mph 5 mph 64 % 0 in
21:12 50.7 °F 39 °F 30.3 in NNE 2 mph 4 mph 64 % 0 in
21:22 50.2 °F 38.5 °F 30.3 in Calm   4 mph 64 % 0 in
21:27 49.8 °F 38.5 °F 30.3 in North 2 mph 4 mph 65 % 0 in
21:32 49.6 °F 38.3 °F 30.3 in North 1 mph 4 mph 65 % 0 in
21:37 49.5 °F 38.1 °F 30.3 in NW 2 mph 4 mph 65 % 0 in
21:42 49.5 °F 38.1 °F 30.3 in North 3 mph 4 mph 65 % 0 in
21:52 49.5 °F 38.1 °F 30.3 in NNE 2 mph 5 mph 65 % 0 in
21:57 49.3 °F 38.5 °F 30.3 in NNE 1 mph 5 mph 66 % 0 in
22:02 49.3 °F 38.5 °F 30.3 in NNE 1 mph 5 mph 66 % 0 in
22:12 48.7 °F 38.3 °F 30.3 in North 1 mph 4 mph 67 % 0 in
22:22 48.4 °F 37.9 °F 30.3 in NW 2 mph 4 mph 67 % 0 in
22:27 48.4 °F 37.9 °F 30.3 in NE 2 mph 4 mph 67 % 0 in
22:32 48.4 °F 37.9 °F 30.3 in NE 1 mph 4 mph 67 % 0 in
22:37 48.4 °F 37.6 °F 30.3 in NE 1 mph 4 mph 66 % 0 in
22:42 48.2 °F 37.8 °F 30.3 in North 1 mph 4 mph 67 % 0 in
22:47 48 °F 37.6 °F 30.3 in NNW 1 mph 4 mph 67 % 0 in
22:52 47.8 °F 37.4 °F 30.3 in North 1 mph 3 mph 67 % 0 in
23:02 47.8 °F 37 °F 30.3 in NNW 1 mph 3 mph 66 % 0 in
23:07 47.8 °F 37 °F 30.3 in NNW 1 mph 3 mph 66 % 0 in
23:12 47.7 °F 37.2 °F 30.3 in NNW 1 mph 3 mph 67 % 0 in
23:17 47.5 °F 37 °F 30.3 in Calm   3 mph 67 % 0 in
23:22 47.3 °F 37.2 °F 30.3 in NNW 1 mph 2 mph 68 % 0 in
23:32 46.8 °F 37.2 °F 30.3 in NW 1 mph 2 mph 69 % 0 in
23:37 46.6 °F 37 °F 30.3 in NW 2 mph 2 mph 69 % 0 in
23:42 46.8 °F 37.2 °F 30.3 in NW 2 mph 2 mph 69 % 0 in
23:52 46.8 °F 36.7 °F 30.3 in NW 1 mph 3 mph 68 % 0 in
23:57 46.8 °F 36.7 °F 30.3 in NW 1 mph 3 mph 68 % 0 in
Meteo18
Compliments of Weather Underground - 4 mb

Script developed by  Jim McMurry - jmcmurry@mwt.net Adapted for the template by  Wim van der Kuil - Leuven-Template.eu

You find our weather info also at:

European Weather Network

Weather Underground

Equipment we use:

Weather-station
Davis Vue

Weather-program
Meteohub

Weather-server
Raspberry PI 2 B+

Provider
1 and 1

Davis Vue

Meteohub

Raspberry PI 2 B+

1 and 1